Time;durP1;ratioP1;P1;durP2;ratioP2;P2;SDS_P1;SDS_P2;PMS_P1;PMS_P2;Temp;Humidity;BMP_temperature;BMP_pressure;BME280_temperature;BME280_humidity;BME280_pressure;Samples;Min_cycle;Max_cycle;Signal;HPM_P1;HPM_P2
2021/08/28 05:02:19;;;;;;;22.48;20.10;;;;;;;17.18;88.30;94633.56;5200790;23;19922;-73
2021/08/28 05:04:44;;;;;;;22.98;20.67;;;;;;;17.37;88.73;94629.91;4954988;28;20030;-74
2021/08/28 05:07:10;;;;;;;21.70;19.40;;;;;;;17.27;88.24;94632.28;4969298;28;20034;-74
2021/08/28 05:09:36;;;;;;;21.23;19.00;;;;;;;17.26;87.61;94634.09;4938604;28;20443;-73
2021/08/28 05:12:01;;;;;;;23.42;21.05;;;;;;;17.15;87.40;94624.34;4936838;28;20046;-73
2021/08/28 05:14:27;;;;;;;24.10;21.80;;;;;;;17.29;87.23;94628.41;4937844;28;20671;-74
2021/08/28 05:16:52;;;;;;;25.52;23.02;;;;;;;17.67;86.74;94619.50;4952129;28;20037;-74
2021/08/28 05:19:18;;;;;;;24.70;21.27;;;;;;;17.71;85.57;94618.84;4936860;28;20062;-74
2021/08/28 05:21:44;;;;;;;23.33;21.00;;;;;;;17.58;85.16;94620.84;4951849;28;20030;-73
2021/08/28 05:24:10;;;;;;;25.33;22.63;;;;;;;17.70;84.94;94626.91;4966670;28;20014;-74
2021/08/28 05:26:36;;;;;;;21.70;19.30;;;;;;;17.67;84.69;94622.13;4971668;28;20075;-74
2021/08/28 05:29:01;;;;;;;20.67;18.45;;;;;;;17.49;86.54;94625.56;4966132;28;20368;-74
2021/08/28 05:31:26;;;;;;;22.90;20.55;;;;;;;17.30;85.71;94626.59;4971366;28;20023;-75
2021/08/28 05:33:52;;;;;;;26.83;20.80;;;;;;;17.14;87.57;94630.63;4979923;28;20031;-74
2021/08/28 05:36:17;;;;;;;21.70;19.33;;;;;;;17.50;86.80;94631.59;4986495;28;20080;-74
2021/08/28 05:38:43;;;;;;;21.20;18.73;;;;;;;17.66;85.49;94623.94;4964843;28;20899;-74
2021/08/28 05:41:08;;;;;;;23.92;20.67;;;;;;;17.10;87.52;94611.13;4961976;28;20097;-75
2021/08/28 05:43:34;;;;;;;23.15;20.58;;;;;;;17.26;87.48;94602.69;4977756;28;20072;-75
2021/08/28 05:45:59;;;;;;;23.05;20.13;;;;;;;17.75;85.31;94617.38;4963208;28;20064;-74
2021/08/28 05:48:25;;;;;;;22.27;19.88;;;;;;;18.15;83.90;94609.72;4960308;28;20385;-75
2021/08/28 05:50:50;;;;;;;22.42;20.17;;;;;;;20.76;75.34;94596.69;4970651;28;20034;-75
2021/08/28 05:53:16;;;;;;;21.25;19.10;;;;;;;23.39;63.88;94594.66;4956295;28;20034;-74
2021/08/28 05:55:41;;;;;;;22.00;19.55;;;;;;;20.01;74.01;94596.28;4954410;28;20073;-75
2021/08/28 05:58:07;;;;;;;19.08;17.33;;;;;;;20.93;71.54;94599.31;4956360;28;20037;-74
2021/08/28 06:00:32;;;;;;;19.73;17.80;;;;;;;22.57;66.19;94591.81;4959136;28;20535;-74
2021/08/28 06:02:58;;;;;;;19.67;17.65;;;;;;;20.72;71.53;94592.94;4970049;28;20042;-74
2021/08/28 06:05:23;;;;;;;18.98;16.63;;;;;;;20.59;73.19;94590.66;4967370;28;20037;-74
2021/08/28 06:07:48;;;;;;;18.58;16.98;;;;;;;20.61;72.21;94593.06;4936424;28;20022;-74
2021/08/28 06:10:14;;;;;;;19.38;17.10;;;;;;;21.24;69.88;94592.59;4932575;29;20035;-74
2021/08/28 06:12:39;;;;;;;20.35;18.55;;;;;;;20.63;71.37;94591.78;4936114;28;20118;-73
2021/08/28 06:15:06;;;;;;;17.52;15.82;;;;;;;20.98;70.42;94578.28;4936823;28;20027;-74
2021/08/28 06:17:32;;;;;;;18.20;16.40;;;;;;;23.19;63.70;94581.34;4935134;28;20023;-74
2021/08/28 06:19:57;;;;;;;19.20;17.20;;;;;;;25.46;56.47;94586.72;4952048;28;20099;-74
2021/08/28 06:22:24;;;;;;;20.23;18.40;;;;;;;24.89;56.83;94576.59;4952929;28;20027;-75
2021/08/28 06:24:49;;;;;;;20.08;18.38;;;;;;;24.46;58.85;94577.97;4968210;28;20031;-74
2021/08/28 06:27:14;;;;;;;18.20;16.58;;;;;;;25.73;53.24;94580.28;4951554;28;20031;-74
2021/08/28 06:29:40;;;;;;;19.33;17.73;;;;;;;23.66;58.66;94569.91;4936859;28;20416;-76
2021/08/28 06:32:06;;;;;;;18.40;16.70;;;;;;;23.76;60.84;94567.28;4967626;28;20039;-75
2021/08/28 06:34:31;;;;;;;16.92;15.43;;;;;;;24.16;57.15;94562.06;4949981;28;20081;-74
2021/08/28 06:36:56;;;;;;;16.63;15.13;;;;;;;24.78;56.14;94566.25;4968350;28;20034;-74
2021/08/28 06:39:22;;;;;;;18.40;16.70;;;;;;;23.97;59.56;94556.47;4966771;28;20828;-75
2021/08/28 06:41:47;;;;;;;16.60;14.73;;;;;;;25.31;56.13;94556.81;4966952;28;20019;-74
2021/08/28 06:44:13;;;;;;;17.48;16.17;;;;;;;24.51;58.64;94546.16;4965989;28;20041;-75
2021/08/28 06:46:38;;;;;;;16.50;15.20;;;;;;;25.61;55.71;94557.53;4966026;28;20058;-75
2021/08/28 06:49:04;;;;;;;17.80;16.05;;;;;;;24.41;57.50;94548.03;4962645;28;20567;-74
2021/08/28 06:51:30;;;;;;;18.60;16.92;;;;;;;24.13;56.93;94549.38;4939573;28;20101;-75
2021/08/28 06:53:55;;;;;;;16.23;14.80;;;;;;;26.94;52.28;94539.50;4930680;28;20050;-74
2021/08/28 06:56:21;;;;;;;18.98;17.00;;;;;;;22.81;59.92;94544.69;4912520;29;20042;-74
2021/08/28 06:58:46;;;;;;;15.57;14.35;;;;;;;23.95;58.32;94540.03;4915602;28;20103;-75
2021/08/28 07:01:12;;;;;;;17.50;16.00;;;;;;;23.95;61.09;94544.56;4966439;28;20050;-75
2021/08/28 07:03:37;;;;;;;16.20;14.68;;;;;;;24.58;58.28;94544.03;4967678;28;20053;-74
2021/08/28 07:06:03;;;;;;;16.85;15.25;;;;;;;25.35;55.91;94545.41;4949340;28;20639;-75
2021/08/28 07:08:28;;;;;;;18.85;17.23;;;;;;;25.00;56.09;94548.22;4967970;28;20082;-75
2021/08/28 07:10:54;;;;;;;17.10;15.48;;;;;;;25.16;55.83;94552.41;4968298;28;20031;-75
2021/08/28 07:13:19;;;;;;;17.75;16.13;;;;;;;25.53;56.95;94554.63;4950078;28;20054;-77
2021/08/28 07:15:45;;;;;;;17.40;15.68;;;;;;;25.77;56.05;94547.63;4950085;28;20027;-75
2021/08/28 07:18:11;;;;;;;16.52;15.13;;;;;;;26.12;53.09;94547.38;4950257;28;20038;-74
2021/08/28 07:20:37;;;;;;;15.95;14.52;;;;;;;25.84;52.45;94542.00;4951360;28;20471;-74
2021/08/28 07:23:02;;;;;;;16.05;14.73;;;;;;;26.12;53.00;94536.75;4933964;28;20174;-74
2021/08/28 07:25:29;;;;;;;15.18;13.93;;;;;;;26.28;52.43;94541.97;4949850;28;20496;-74
2021/08/28 07:27:54;;;;;;;17.45;15.88;;;;;;;25.90;53.46;94548.84;4935205;28;20117;-75
2021/08/28 07:30:20;;;;;;;14.88;13.77;;;;;;;25.61;54.17;94552.22;4968010;28;20045;-74
2021/08/28 07:32:45;;;;;;;16.50;14.88;;;;;;;26.31;50.92;94542.19;4951092;28;20026;-73
2021/08/28 07:35:11;;;;;;;15.90;14.48;;;;;;;26.70;52.28;94542.13;4933674;28;20031;-74
2021/08/28 07:37:36;;;;;;;16.17;14.85;;;;;;;26.52;51.58;94540.16;4919873;28;20035;-74
2021/08/28 07:40:04;;;;;;;15.77;14.43;;;;;;;26.55;52.50;94539.59;4917813;28;20049;-74
2021/08/28 07:42:29;;;;;;;16.25;14.70;;;;;;;26.26;53.79;94530.84;4935871;28;20110;-76
2021/08/28 07:44:54;;;;;;;16.92;15.43;;;;;;;26.37;53.63;94529.66;4938027;28;20034;-75
2021/08/28 07:47:20;;;;;;;15.70;14.27;;;;;;;26.04;51.59;94533.91;4939001;28;20061;-74
2021/08/28 07:49:45;;;;;;;14.95;13.80;;;;;;;26.33;52.61;94541.94;4972151;28;20678;-74
2021/08/28 07:52:11;;;;;;;15.48;14.27;;;;;;;26.23;53.00;94537.50;4937670;28;20456;-74
2021/08/28 07:54:36;;;;;;;15.32;13.95;;;;;;;26.24;52.12;94527.66;4955113;28;20027;-73
2021/08/28 07:57:02;;;;;;;16.60;15.05;;;;;;;26.19;53.07;94520.53;4937584;28;20034;-74
2021/08/28 07:59:28;;;;;;;17.67;15.90;;;;;;;24.49;57.72;94524.47;4972149;28;20039;-75
2021/08/28 08:01:54;;;;;;;16.63;15.23;;;;;;;25.53;55.51;94522.78;4921151;29;20497;-74
2021/08/28 08:04:19;;;;;;;16.42;14.93;;;;;;;25.92;54.74;94515.66;4932112;29;20489;-74
2021/08/28 08:06:45;;;;;;;16.33;14.98;;;;;;;26.55;54.53;94513.81;4931894;29;20059;-74
2021/08/28 08:09:10;;;;;;;17.00;15.32;;;;;;;26.65;55.18;94513.72;4931579;29;20024;-74
2021/08/28 08:11:36;;;;;;;19.05;17.25;;;;;;;24.16;59.40;94510.97;4916581;29;20032;-76
2021/08/28 08:14:01;;;;;;;18.27;16.48;;;;;;;25.14;58.32;94509.47;4930784;29;20059;-75
2021/08/28 08:16:27;;;;;;;16.10;14.77;;;;;;;26.01;55.75;94499.91;4931726;29;20044;-74
2021/08/28 08:18:53;;;;;;;16.58;15.18;;;;;;;26.61;54.40;94502.06;4930263;29;20039;-74
2021/08/28 08:21:19;;;;;;;16.27;14.85;;;;;;;25.47;55.73;94497.34;4916980;29;20051;-75
2021/08/28 08:23:44;;;;;;;15.60;14.30;;;;;;;26.36;55.17;94496.97;4931109;29;20456;-76
2021/08/28 08:26:10;;;;;;;16.50;15.20;;;;;;;26.83;54.37;94487.50;4931783;29;20323;-73
2021/08/28 08:28:36;;;;;;;14.98;13.77;;;;;;;26.70;54.92;94488.94;4932220;29;20059;-74
2021/08/28 08:31:01;;;;;;;18.55;16.88;;;;;;;25.75;54.85;94479.97;4929664;29;20516;-74
2021/08/28 08:33:27;;;;;;;16.52;15.15;;;;;;;26.27;55.62;94485.38;4931706;29;20032;-76
2021/08/28 08:35:52;;;;;;;16.75;15.35;;;;;;;26.19;54.46;94478.03;4914385;29;20186;-75
2021/08/28 08:38:18;;;;;;;16.92;15.32;;;;;;;25.19;59.73;94490.88;4932498;29;20492;-76
2021/08/28 08:40:45;;;;;;;16.33;14.95;;;;;;;26.46;56.13;94480.16;4929897;29;20024;-75
2021/08/28 08:43:10;;;;;;;17.48;15.88;;;;;;;26.87;54.57;94477.91;4932134;29;20035;-74
2021/08/28 08:45:36;;;;;;;16.17;14.88;;;;;;;26.69;54.87;94472.22;4930096;29;20024;-73
2021/08/28 08:48:01;;;;;;;17.33;15.73;;;;;;;27.14;54.53;94467.44;4930380;29;20436;-75
2021/08/28 08:50:27;;;;;;;15.82;14.52;;;;;;;27.21;53.70;94473.22;4931977;29;20043;-74
2021/08/28 08:52:54;;;;;;;19.15;17.10;;;;;;;25.22;55.15;94471.75;4930348;29;20028;-74
2021/08/28 08:55:20;;;;;;;16.00;14.57;;;;;;;26.54;57.99;94469.72;4930940;29;20386;-74
2021/08/28 08:57:46;;;;;;;17.60;16.10;;;;;;;24.64;58.92;94455.53;4929883;29;20038;-74
2021/08/28 09:00:13;;;;;;;16.58;14.80;;;;;;;26.69;56.73;94445.63;4915240;29;20420;-77
2021/08/28 09:02:38;;;;;;;15.10;13.48;;;;;;;27.05;53.54;94447.88;4930324;29;20102;-73
2021/08/28 09:05:04;;;;;;;16.83;15.32;;;;;;;26.49;55.48;94459.13;4931098;29;20028;-73
2021/08/28 09:07:30;;;;;;;16.65;15.10;;;;;;;27.32;55.01;94437.44;4931071;29;20024;-73
2021/08/28 09:09:55;;;;;;;18.80;17.20;;;;;;;25.99;54.58;94438.34;4929904;29;20039;-74
2021/08/28 09:12:21;;;;;;;16.67;15.38;;;;;;;26.58;55.88;94435.41;4931323;29;20036;-75
2021/08/28 09:14:53;;;;;;;17.33;15.90;;;;;;;27.38;54.57;94430.94;4929746;29;20031;-73
2021/08/28 09:17:20;;;;;;;16.83;15.35;;;;;;;27.09;54.32;94428.44;4915751;29;20398;-73
2021/08/28 09:19:46;;;;;;;17.48;15.57;;;;;;;26.96;54.63;94425.66;4930057;29;20036;-73
2021/08/28 09:22:23;;;;;;;16.33;14.70;;;;;;;27.30;54.86;94425.47;4931057;29;20028;-74
2021/08/28 09:24:49;;;;;;;16.92;15.43;;;;;;;26.82;56.42;94422.91;4930814;29;20024;-74
2021/08/28 09:27:33;;;;;;;15.38;14.07;;;;;;;27.13;54.95;94416.13;4929738;29;20035;-73
2021/08/28 09:29:59;;;;;;;17.38;15.93;;;;;;;27.52;53.58;94405.22;4930496;29;20035;-74
2021/08/28 09:32:24;;;;;;;17.52;16.02;;;;;;;26.80;55.22;94408.28;4913664;29;20119;-72
2021/08/28 09:34:50;;;;;;;17.90;16.05;;;;;;;27.26;54.00;94409.28;4931009;29;20024;-72
2021/08/28 09:37:15;;;;;;;16.38;15.07;;;;;;;26.56;55.10;94401.13;4913982;29;20031;-72
2021/08/28 09:39:45;;;;;;;18.33;16.63;;;;;;;27.42;56.70;94405.31;4914246;29;20031;-73
2021/08/28 09:42:22;;;;;;;18.10;16.70;;;;;;;27.66;55.00;94398.06;4930814;29;20110;-76
2021/08/28 09:44:48;;;;;;;18.75;17.13;;;;;;;27.10;57.36;94392.75;4914731;29;20507;-74
2021/08/28 09:47:16;;;;;;;15.30;14.00;;;;;;;28.22;54.83;94391.84;4930503;29;20058;-77
2021/08/28 09:49:48;;;;;;;17.38;15.70;;;;;;;28.40;52.34;94390.16;4930462;29;20482;-76
2021/08/28 09:52:24;;;;;;;16.25;14.82;;;;;;;28.07;53.26;94384.09;4930206;29;20505;-73
2021/08/28 09:54:50;;;;;;;16.85;15.38;;;;;;;27.73;53.87;94374.53;4930107;29;20028;-73
2021/08/28 09:57:15;;;;;;;17.05;15.50;;;;;;;27.88;55.67;94370.03;4913456;29;20024;-73
2021/08/28 09:59:44;;;;;;;16.83;15.25;;;;;;;27.17;55.56;94368.47;4930339;29;20031;-73
2021/08/28 10:02:11;;;;;;;17.30;15.65;;;;;;;27.42;54.37;94365.41;4928642;29;20059;-73
2021/08/28 10:04:49;;;;;;;17.77;16.27;;;;;;;27.34;55.56;94366.09;4930514;29;20111;-74
2021/08/28 10:07:24;;;;;;;17.58;15.70;;;;;;;27.51;54.36;94360.25;4930275;29;20038;-73
2021/08/28 10:09:59;;;;;;;18.15;16.48;;;;;;;27.01;54.96;94359.91;4931169;29;20517;-73
2021/08/28 10:12:25;;;;;;;17.75;16.25;;;;;;;26.90;56.08;94355.03;4914293;29;20031;-73
2021/08/28 10:14:55;;;;;;;17.75;16.30;;;;;;;27.40;55.75;94353.47;4927858;29;20070;-73
2021/08/28 10:17:21;;;;;;;17.85;16.13;;;;;;;26.82;56.49;94348.47;4929467;29;20118;-73
2021/08/28 10:19:52;;;;;;;16.73;15.40;;;;;;;27.40;55.56;94342.84;4928257;29;20056;-73
2021/08/28 10:22:26;;;;;;;17.17;15.77;;;;;;;27.91;55.18;94343.59;4930103;29;20034;-73
2021/08/28 10:24:54;;;;;;;18.13;16.15;;;;;;;27.66;55.72;94344.03;4929266;29;20020;-76
2021/08/28 10:27:29;;;;;;;17.88;16.33;;;;;;;28.14;54.11;94331.22;4929372;29;20410;-74
2021/08/28 10:29:54;;;;;;;16.42;15.23;;;;;;;27.83;57.08;94330.97;4913924;29;20094;-73
2021/08/28 10:32:20;;;;;;;19.38;17.70;;;;;;;27.28;56.94;94322.00;4928497;29;20919;-75
2021/08/28 10:34:47;;;;;;;18.60;17.10;;;;;;;27.88;56.21;94322.09;4929308;29;20580;-73
2021/08/28 10:37:13;;;;;;;19.80;17.77;;;;;;;27.59;56.95;94323.13;4928419;29;20062;-74
2021/08/28 10:39:38;;;;;;;17.55;15.95;;;;;;;27.56;55.85;94315.72;4930861;29;20501;-72
2021/08/28 10:42:05;;;;;;;17.35;15.95;;;;;;;28.36;56.26;94312.66;4928608;29;20036;-73
2021/08/28 10:44:31;;;;;;;17.42;15.90;;;;;;;28.50;56.11;94302.00;4929371;29;20034;-73
2021/08/28 10:46:56;;;;;;;16.95;15.57;;;;;;;28.69;55.58;94302.69;4929912;29;20028;-73
2021/08/28 10:49:22;;;;;;;18.45;16.80;;;;;;;28.67;55.97;94308.31;4928118;29;20058;-73
2021/08/28 10:51:54;;;;;;;19.38;17.77;;;;;;;27.58;56.86;94308.22;4929780;29;20027;-74
2021/08/28 10:54:23;;;;;;;17.50;16.08;;;;;;;28.25;56.48;94297.97;4927533;29;20094;-73
2021/08/28 10:56:51;;;;;;;18.23;16.42;;;;;;;28.61;55.43;94293.47;4931058;29;20053;-74
2021/08/28 10:59:29;;;;;;;17.67;16.27;;;;;;;28.76;55.65;94295.06;4929023;29;20047;-73
2021/08/28 11:02:15;;;;;;;19.42;17.30;;;;;;;27.56;57.17;94288.31;4953504;28;20464;-74
2021/08/28 11:04:42;;;;;;;19.00;17.25;;;;;;;27.89;57.43;94283.72;4968322;28;20043;-73
2021/08/28 11:07:39;;;;;;;20.25;18.45;;;;;;;28.14;56.91;94284.06;4967178;28;20496;-74
2021/08/28 11:10:17;;;;;;;18.88;17.23;;;;;;;27.99;57.20;94283.53;4951601;28;20035;-73
2021/08/28 11:12:52;;;;;;;16.77;15.48;;;;;;;28.09;57.78;94284.19;4968450;28;20031;-73
2021/08/28 11:15:30;;;;;;;18.13;16.63;;;;;;;28.42;57.22;94281.38;4959490;28;20022;-74
2021/08/28 11:17:58;;;;;;;18.88;17.42;;;;;;;27.78;57.55;94283.13;4951212;28;20026;-74
2021/08/28 11:20:34;;;;;;;19.20;17.63;;;;;;;28.13;57.03;94282.47;4966891;28;20059;-73
2021/08/28 11:23:03;;;;;;;17.55;15.90;;;;;;;28.26;57.51;94268.34;4937022;28;20031;-73
2021/08/28 11:25:30;;;;;;;19.02;17.50;;;;;;;28.23;57.61;94266.28;4934671;28;20027;-74
2021/08/28 11:27:55;;;;;;;18.35;16.50;;;;;;;28.45;55.08;94270.91;4967597;28;20031;-74
2021/08/28 11:30:46;;;;;;;18.65;16.90;;;;;;;28.30;56.88;94265.88;4951460;28;20038;-73
2021/08/28 11:33:20;;;;;;;19.30;17.58;;;;;;;29.29;55.59;94258.63;4949797;28;20034;-74
2021/08/28 11:36:21;;;;;;;18.25;16.75;;;;;;;29.40;55.39;94261.06;4951512;28;20034;-74
2021/08/28 11:38:46;;;;;;;17.08;15.60;;;;;;;29.15;54.72;94254.44;4949237;28;20642;-73
2021/08/28 11:41:12;;;;;;;20.55;18.50;;;;;;;28.86;54.15;94241.50;4949868;28;20126;-75
2021/08/28 11:43:43;;;;;;;16.83;15.52;;;;;;;28.67;54.88;94238.22;4951506;28;20023;-73
2021/08/28 11:46:13;;;;;;;20.05;18.15;;;;;;;28.66;57.07;94237.44;4950100;28;20026;-73
2021/08/28 11:48:42;;;;;;;18.20;16.70;;;;;;;28.63;55.88;94243.34;4936181;28;20093;-73
2021/08/28 11:51:21;;;;;;;18.50;16.70;;;;;;;28.42;56.93;94239.50;4937207;28;20035;-75
2021/08/28 11:53:50;;;;;;;16.90;15.40;;;;;;;28.52;56.47;94225.97;4935831;28;20118;-74
2021/08/28 11:56:17;;;;;;;18.67;17.00;;;;;;;28.47;55.97;94239.41;4934924;28;20110;-74
2021/08/28 11:58:56;;;;;;;19.00;17.20;;;;;;;27.74;57.32;94224.34;4949487;28;20038;-73
2021/08/28 12:01:25;;;;;;;;;;;;;;;28.23;56.97;94236.19;4935785;28;20043;-73
2021/08/28 12:03:51;;;;;;;20.60;18.35;;;;;;;28.57;56.89;94225.09;4966916;28;19949;-73
2021/08/28 12:06:16;;;;;;;19.48;17.60;;;;;;;28.73;56.82;94216.47;4934445;28;20039;-74
2021/08/28 12:08:42;;;;;;;18.33;16.40;;;;;;;28.71;54.17;94213.31;4950794;28;20066;-74
2021/08/28 12:11:07;;;;;;;18.48;16.65;;;;;;;28.82;53.54;94207.72;4934051;28;20186;-73
2021/08/28 12:13:49;;;;;;;18.10;16.58;;;;;;;29.08;54.48;94200.69;4950247;28;20038;-73
2021/08/28 12:16:23;;;;;;;19.20;17.17;;;;;;;29.58;54.14;94193.28;4966900;28;20029;-73
2021/08/28 12:19:11;;;;;;;17.98;16.27;;;;;;;29.68;54.43;94190.34;4951412;28;20035;-73
2021/08/28 12:21:38;;;;;;;18.17;16.65;;;;;;;29.97;53.84;94189.84;4949862;28;20404;-74
2021/08/28 12:24:17;;;;;;;16.30;14.98;;;;;;;29.18;53.97;94195.91;4933880;28;20050;-75
2021/08/28 12:26:50;;;;;;;13.20;11.75;;;;;;;27.77;55.89;94203.56;4934621;28;20038;-74
2021/08/28 12:29:23;;;;;;;12.43;11.48;;;;;;;27.20;56.55;94194.97;4935636;28;20041;-75
2021/08/28 12:31:56;;;;;;;15.00;11.63;;;;;;;27.05;58.17;94179.28;4938445;28;20035;-76
2021/08/28 12:34:22;;;;;;;13.07;11.27;;;;;;;26.61;59.39;94185.81;4937231;28;20030;-74
2021/08/28 12:36:47;;;;;;;12.18;11.27;;;;;;;26.67;58.39;94179.34;4954018;28;20031;-77
2021/08/28 12:39:13;;;;;;;13.20;11.70;;;;;;;26.41;59.62;94183.47;4953938;28;20045;-75
2021/08/28 12:41:38;;;;;;;12.48;11.30;;;;;;;26.12;60.01;94186.22;4936309;28;20042;-74
2021/08/28 12:44:05;;;;;;;12.70;11.55;;;;;;;26.28;59.35;94186.84;4938324;28;20062;-74
2021/08/28 12:46:32;;;;;;;12.57;11.48;;;;;;;26.35;59.93;94187.28;4936629;28;20034;-74
2021/08/28 12:49:15;;;;;;;11.43;10.43;;;;;;;26.52;59.20;94184.88;4938102;28;20027;-74
2021/08/28 12:51:47;;;;;;;12.55;11.63;;;;;;;26.41;60.22;94174.69;4952647;28;20045;-75
2021/08/28 12:54:25;;;;;;;11.88;10.88;;;;;;;26.34;60.00;94164.44;4947262;28;20511;-75
2021/08/28 12:56:52;;;;;;;11.98;10.95;;;;;;;26.20;59.14;94166.22;4971230;28;20033;-75
2021/08/28 12:59:21;;;;;;;13.00;11.48;;;;;;;26.26;59.56;94164.28;4938476;28;20618;-75
2021/08/28 13:01:51;;;;;;;12.63;11.63;;;;;;;26.23;60.43;94165.66;4951533;29;20059;-75
2021/08/28 13:04:16;;;;;;;11.40;10.40;;;;;;;26.58;60.00;94167.81;4932393;29;20470;-75
2021/08/28 13:06:42;;;;;;;10.90;9.70;;;;;;;26.56;58.39;94169.94;4934735;29;20028;-81
2021/08/28 13:09:16;;;;;;;11.05;10.10;;;;;;;26.65;57.99;94162.88;4941161;28;20160;-75
2021/08/28 13:11:53;;;;;;;11.13;9.98;;;;;;;26.48;58.25;94156.53;4952178;28;20101;-76
2021/08/28 13:14:18;;;;;;;11.07;9.60;;;;;;;26.35;58.95;94151.94;4921668;28;20081;-76
2021/08/28 13:16:57;;;;;;;10.60;9.65;;;;;;;26.64;57.82;94140.06;4951773;28;20031;-74
2021/08/28 13:19:31;;;;;;;10.13;9.43;;;;;;;26.58;58.42;94138.56;4953239;28;20019;-75
2021/08/28 13:21:57;;;;;;;10.68;9.75;;;;;;;25.93;59.78;94142.16;4936880;28;20042;-75
2021/08/28 13:24:23;;;;;;;10.07;9.30;;;;;;;25.80;61.23;94148.16;4953055;28;20048;-75
2021/08/28 13:27:21;;;;;;;10.82;9.93;;;;;;;25.55;62.41;94158.00;4936880;28;20114;-77
2021/08/28 13:29:47;;;;;;;10.60;9.63;;;;;;;25.35;62.12;94146.78;4952082;28;20050;-74
2021/08/28 13:32:15;;;;;;;10.15;9.43;;;;;;;25.20;62.30;94126.56;4971086;28;20035;-76
2021/08/28 13:34:41;;;;;;;11.57;10.68;;;;;;;25.17;62.65;94135.84;4935173;28;20484;-75
2021/08/28 13:37:07;;;;;;;9.77;8.80;;;;;;;25.06;62.59;94133.59;4936890;28;20505;-75
2021/08/28 13:39:33;;;;;;;10.30;9.32;;;;;;;25.04;62.40;94123.25;4936627;28;20073;-73
2021/08/28 13:41:59;;;;;;;11.05;9.95;;;;;;;24.86;63.80;94105.41;4919749;28;20027;-74
2021/08/28 13:44:24;;;;;;;10.30;9.50;;;;;;;24.75;64.12;94105.78;4921464;28;20030;-74
2021/08/28 13:46:49;;;;;;;9.25;8.55;;;;;;;24.78;63.33;94118.47;4951533;28;20031;-75
2021/08/28 13:49:15;;;;;;;10.68;9.85;;;;;;;24.75;63.18;94129.63;4952404;28;20034;-75
2021/08/28 13:51:40;;;;;;;10.55;9.77;;;;;;;24.67;64.18;94126.50;4935200;28;20030;-74
2021/08/28 13:54:06;;;;;;;9.40;8.63;;;;;;;24.65;63.52;94128.63;4953132;28;20408;-75
2021/08/28 13:56:31;;;;;;;10.55;9.75;;;;;;;24.74;63.07;94122.72;4969115;28;20389;-74
2021/08/28 13:58:57;;;;;;;9.73;9.02;;;;;;;25.02;62.77;94141.31;4952454;28;20030;-74
2021/08/28 14:01:23;;;;;;;9.57;8.80;;;;;;;25.05;62.41;94155.84;4930774;28;20046;-74
2021/08/28 14:03:48;;;;;;;9.65;8.95;;;;;;;24.92;62.16;94177.69;4918730;28;20031;-74
2021/08/28 14:06:14;;;;;;;9.85;9.05;;;;;;;25.02;63.41;94189.00;4969825;28;20022;-74
2021/08/28 14:08:39;;;;;;;10.35;9.25;;;;;;;24.76;65.45;94211.47;4951407;28;20047;-75
2021/08/28 14:11:05;;;;;;;12.05;10.85;;;;;;;24.47;67.90;94213.25;4952013;28;20054;-78
2021/08/28 14:13:30;;;;;;;10.50;9.60;;;;;;;24.08;69.97;94226.44;4935066;28;20413;-74
2021/08/28 14:15:56;;;;;;;10.13;9.30;;;;;;;24.00;70.96;94229.63;4920208;28;20030;-76
2021/08/28 14:18:22;;;;;;;10.30;9.30;;;;;;;23.92;71.45;94222.28;4951413;28;20034;-75
2021/08/28 14:20:47;;;;;;;10.00;9.10;;;;;;;23.73;72.53;94218.66;4951130;28;20026;-75
2021/08/28 14:23:13;;;;;;;13.75;9.68;;;;;;;23.82;73.16;94215.16;4952077;28;20039;-77
2021/08/28 14:25:38;;;;;;;8.93;7.47;;;;;;;23.93;72.84;94218.53;4934662;28;20039;-74
2021/08/28 14:28:04;;;;;;;7.65;6.93;;;;;;;24.13;72.20;94215.84;4952740;28;20134;-75
2021/08/28 14:30:30;;;;;;;8.15;7.38;;;;;;;24.13;70.68;94221.94;4950712;28;20023;-75
2021/08/28 14:32:56;;;;;;;7.95;7.25;;;;;;;24.07;69.17;94224.84;4952221;28;20031;-75
2021/08/28 14:35:21;;;;;;;8.20;7.50;;;;;;;24.30;68.74;94231.38;4935071;28;20039;-75
2021/08/28 14:37:47;;;;;;;7.97;7.38;;;;;;;23.75;70.33;94225.25;4935784;28;20037;-75
2021/08/28 14:40:12;;;;;;;8.27;7.68;;;;;;;23.52;71.47;94224.00;4920296;28;20487;-75
2021/08/28 14:42:38;;;;;;;8.48;6.82;;;;;;;23.56;72.32;94219.75;4934990;28;20023;-75
2021/08/28 14:45:05;;;;;;;9.45;8.65;;;;;;;23.50;71.78;94215.50;4952190;28;20031;-75
2021/08/28 14:47:32;;;;;;;11.52;10.05;;;;;;;23.04;74.10;94216.66;4950608;28;20488;-76
2021/08/28 14:49:58;;;;;;;10.27;9.32;;;;;;;22.62;76.78;94231.94;4935927;28;20406;-76
2021/08/28 14:52:23;;;;;;;12.80;10.23;;;;;;;22.39;77.50;94220.81;4949163;28;20022;-75
2021/08/28 14:54:49;;;;;;;10.73;9.82;;;;;;;22.40;78.43;94232.97;4950800;28;20023;-74
2021/08/28 14:57:15;;;;;;;10.50;9.68;;;;;;;22.32;79.13;94232.66;4968785;28;20033;-75
2021/08/28 14:59:40;;;;;;;10.40;9.07;;;;;;;22.25;79.27;94224.22;4950966;28;20019;-75
2021/08/28 15:02:06;;;;;;;10.75;9.88;;;;;;;22.17;80.26;94222.88;4934724;28;20054;-75
2021/08/28 15:04:31;;;;;;;11.35;9.27;;;;;;;22.31;79.27;94220.53;4916980;28;20049;-75
2021/08/28 15:06:56;;;;;;;9.55;7.97;;;;;;;22.01;77.94;94203.59;4968279;28;20031;-75
2021/08/28 15:09:22;;;;;;;8.90;8.20;;;;;;;22.00;78.89;94193.28;4933067;28;20515;-74
2021/08/28 15:11:47;;;;;;;8.27;7.47;;;;;;;21.90;78.55;94194.03;4934655;28;20089;-74
2021/08/28 15:14:13;;;;;;;8.68;7.88;;;;;;;21.79;78.52;94204.78;4933393;28;20030;-74
2021/08/28 15:16:38;;;;;;;10.32;8.75;;;;;;;21.71;79.36;94203.44;4949742;28;20074;-74
2021/08/28 15:19:04;;;;;;;10.25;9.20;;;;;;;21.82;79.26;94215.63;4934008;28;20039;-74
2021/08/28 15:21:30;;;;;;;9.65;8.93;;;;;;;21.66;80.01;94210.53;4948967;28;20026;-74
2021/08/28 15:23:55;;;;;;;9.32;8.35;;;;;;;21.67;79.69;94214.75;4950462;28;20484;-74
2021/08/28 15:26:21;;;;;;;9.68;8.70;;;;;;;21.70;78.66;94219.53;4948653;28;20043;-74
2021/08/28 15:28:47;;;;;;;10.15;8.43;;;;;;;21.73;79.10;94217.16;4950738;28;20019;-73
2021/08/28 15:31:12;;;;;;;9.43;8.63;;;;;;;21.64;79.45;94218.69;4948414;28;20035;-74
2021/08/28 15:33:39;;;;;;;10.27;9.48;;;;;;;21.81;78.83;94219.28;4950356;28;20528;-74
2021/08/28 15:36:04;;;;;;;9.75;8.88;;;;;;;21.96;78.59;94231.78;4933504;28;20023;-74
2021/08/28 15:38:30;;;;;;;10.05;8.85;;;;;;;21.97;78.07;94233.34;4948962;28;20027;-73
2021/08/28 15:40:55;;;;;;;10.82;9.88;;;;;;;21.96;80.15;94237.06;4950322;28;20037;-74
2021/08/28 15:43:21;;;;;;;9.98;9.18;;;;;;;22.05;79.29;94227.59;4948755;28;20105;-74
2021/08/28 15:45:48;;;;;;;10.10;9.20;;;;;;;21.98;80.05;94234.97;4950399;28;20382;-75
2021/08/28 15:48:13;;;;;;;11.02;10.02;;;;;;;22.01;79.95;94242.34;4948300;28;20122;-74
2021/08/28 15:50:39;;;;;;;9.45;8.55;;;;;;;21.96;79.16;94260.81;4918428;28;20035;-75
2021/08/28 15:53:04;;;;;;;10.25;9.15;;;;;;;21.83;79.60;94271.78;4933515;28;20065;-76
2021/08/28 15:55:29;;;;;;;6.00;4.97;;;;;;;21.53;78.35;94281.13;4933502;28;20031;-76
2021/08/28 15:57:55;;;;;;;5.05;4.57;;;;;;;21.52;79.16;94282.16;4949631;28;20038;-76
2021/08/28 16:00:20;;;;;;;5.50;4.40;;;;;;;21.23;80.37;94273.00;4932412;28;20493;-74
2021/08/28 16:02:46;;;;;;;6.15;4.55;;;;;;;21.27;80.22;94276.75;4950229;28;20051;-75
2021/08/28 16:05:12;;;;;;;5.00;4.53;;;;;;;21.21;78.74;94277.75;4968359;28;20093;-78
2021/08/28 16:07:41;;;;;;;5.40;4.90;;;;;;;21.29;80.28;94290.44;4922281;28;20027;-75
2021/08/28 16:10:08;;;;;;;7.05;6.25;;;;;;;21.12;83.31;94287.16;4920802;28;20055;-75
2021/08/28 16:12:34;;;;;;;8.90;6.93;;;;;;;20.90;86.13;94287.22;4938062;28;20070;-75
2021/08/28 16:14:59;;;;;;;9.57;8.68;;;;;;;20.81;87.61;94280.00;4937565;28;20457;-75
2021/08/28 16:17:25;;;;;;;10.63;9.73;;;;;;;20.68;89.54;94289.13;4952727;28;20022;-76
2021/08/28 16:19:51;;;;;;;14.85;11.90;;;;;;;20.40;92.82;94290.16;4937649;28;20404;-78
2021/08/28 16:22:17;;;;;;;14.05;12.23;;;;;;;20.39;94.38;94290.41;4951803;28;20039;-77
2021/08/28 16:24:42;;;;;;;16.35;14.63;;;;;;;20.18;94.64;94285.94;4953954;28;20019;-78